PWSweather.com
Personal Weather Stations
Station Observations
GRD01
Warsaw, LesznoPL 05-084

WarsawLesznoPL 05-084

Lat: 52.257404, Lon: 20.564847

Elevation: 298

Station Type: WH3080

http://pogoda.kampinos.waw.pl

High Low Average
Temperature 60.6°F15.9°C 46.8°F8.2°C 52.0°F11.1°C
Dew Point 46.9°F8.3°C 40.1°F4.5°C 43.3°F6.3°C
Winds 16.8 mph 27.0 kmh Calm Calm 6.0 mph SW9.7 kmh SW
Wind Gusts 38.7 mph62.3 kmh 2.2 mph3.5 kmh 13.0 mph20.9 kmh
Humidity 88% 52% 73%
Pressure 30.39 in1029.1 mb 30.17 in1021.7 mb -
Precipitation 0.13 in3.3 mm - -
Hour Temp Dew Point Humidity Winds Wind Gusts Pressure Precip Precip Rate Daily Precip Total
12:00 AM 49.6°F9.8°C 40.3°F4.6°C 70% Calm Calm 3.1 mph5.0 kmh 30.39 in1029.1 mb 0.00 in0.0 mm 0.00 in0.0 mm 0.00 in0.0 mm
12:11 AM 49.6°F9.8°C 40.3°F4.6°C 70% 1.6 mph SW2.6 kmh SW 2.2 mph3.5 kmh 29.94 in1013.9 mb 0.00 in0.0 mm 0.00 in0.0 mm 0.00 in0.0 mm
12:15 AM 49.1°F9.5°C 40.1°F4.5°C 71% 2.2 mph SW3.5 kmh SW 3.1 mph5.0 kmh 30.39 in1029.1 mb 0.00 in0.0 mm 0.00 in0.0 mm 0.00 in0.0 mm
12:30 AM 48.9°F9.4°C 40.3°F4.6°C 72% 2.2 mph W3.5 kmh W 5.4 mph8.7 kmh 30.38 in1028.8 mb 0.00 in0.0 mm 0.00 in0.0 mm 0.00 in0.0 mm
12:41 AM 48.9°F9.4°C 40.3°F4.6°C 72% 3.8 mph W6.1 kmh W 4.5 mph7.2 kmh 29.94 in1013.9 mb 0.00 in0.0 mm 0.00 in0.0 mm 0.00 in0.0 mm
12:45 AM 48.7°F9.3°C 40.5°F4.7°C 73% 2.2 mph SW3.5 kmh SW 5.4 mph8.7 kmh 30.38 in1028.8 mb 0.00 in0.0 mm 0.00 in0.0 mm 0.00 in0.0 mm
01:00 AM 48.6°F9.2°C 40.3°F4.6°C 73% 1.6 mph SW2.6 kmh SW 3.8 mph6.1 kmh 30.39 in1029.1 mb 0.00 in0.0 mm 0.00 in0.0 mm 0.00 in0.0 mm
01:11 AM 48.6°F9.2°C 40.3°F4.6°C 73% 1.6 mph SW2.6 kmh SW 2.2 mph3.5 kmh 29.93 in1013.5 mb 0.00 in0.0 mm 0.00 in0.0 mm 0.00 in0.0 mm
01:15 AM 48.6°F9.2°C 40.6°F4.8°C 74% 3.1 mph SW5.0 kmh SW 6.9 mph11.1 kmh 30.38 in1028.8 mb 0.00 in0.0 mm 0.00 in0.0 mm 0.00 in0.0 mm
01:30 AM 48.4°F9.1°C 40.5°F4.7°C 74% 2.2 mph WSW3.5 kmh WSW 4.5 mph7.2 kmh 30.37 in1028.4 mb 0.00 in0.0 mm 0.00 in0.0 mm 0.00 in0.0 mm
01:41 AM 48.4°F9.1°C 40.8°F4.9°C 75% 2.2 mph SW3.5 kmh SW 3.1 mph5.0 kmh 29.94 in1013.9 mb 0.00 in0.0 mm 0.00 in0.0 mm 0.00 in0.0 mm
01:45 AM 48.2°F9.0°C 40.6°F4.8°C 75% 3.8 mph SW6.1 kmh SW 3.8 mph6.1 kmh 30.38 in1028.8 mb 0.00 in0.0 mm 0.00 in0.0 mm 0.00 in0.0 mm
02:00 AM 48.0°F8.9°C 40.5°F4.7°C 75% 2.2 mph SW3.5 kmh SW 3.8 mph6.1 kmh 30.37 in1028.4 mb 0.00 in0.0 mm 0.00 in0.0 mm 0.00 in0.0 mm
02:11 AM 48.0°F8.9°C 40.5°F4.7°C 75% 2.2 mph W3.5 kmh W 3.1 mph5.0 kmh 29.93 in1013.5 mb 0.00 in0.0 mm 0.00 in0.0 mm 0.00 in0.0 mm
02:15 AM 47.8°F8.8°C 40.6°F4.8°C 76% 2.2 mph SW3.5 kmh SW 5.4 mph8.7 kmh 30.37 in1028.4 mb 0.00 in0.0 mm 0.00 in0.0 mm 0.00 in0.0 mm
02:30 AM 47.7°F8.7°C 40.5°F4.7°C 76% 3.1 mph WSW5.0 kmh WSW 5.4 mph8.7 kmh 30.37 in1028.4 mb 0.00 in0.0 mm 0.00 in0.0 mm 0.00 in0.0 mm
02:41 AM 47.7°F8.7°C 40.5°F4.7°C 76% 2.2 mph SW3.5 kmh SW 3.8 mph6.1 kmh 29.93 in1013.5 mb 0.00 in0.0 mm 0.00 in0.0 mm 0.00 in0.0 mm
02:45 AM 47.5°F8.6°C 40.3°F4.6°C 76% 2.2 mph WSW3.5 kmh WSW 4.5 mph7.2 kmh 30.38 in1028.8 mb 0.00 in0.0 mm 0.00 in0.0 mm 0.00 in0.0 mm
03:00 AM 47.5°F8.6°C 40.6°F4.8°C 77% 3.1 mph SW5.0 kmh SW 4.5 mph7.2 kmh 30.38 in1028.8 mb 0.00 in0.0 mm 0.00 in0.0 mm 0.00 in0.0 mm
03:11 AM 47.5°F8.6°C 40.6°F4.8°C 77% 1.6 mph SW2.6 kmh SW 3.1 mph5.0 kmh 29.93 in1013.5 mb 0.00 in0.0 mm 0.00 in0.0 mm 0.00 in0.0 mm
03:15 AM 47.5°F8.6°C 41.0°F5.0°C 78% 2.2 mph SW3.5 kmh SW 5.4 mph8.7 kmh 30.37 in1028.4 mb 0.00 in0.0 mm 0.00 in0.0 mm 0.00 in0.0 mm
03:30 AM 47.5°F8.6°C 41.3°F5.2°C 79% 0.7 mph WSW1.1 kmh WSW 4.5 mph7.2 kmh 30.37 in1028.4 mb 0.00 in0.0 mm 0.00 in0.0 mm 0.00 in0.0 mm
03:41 AM 47.3°F8.5°C 41.1°F5.1°C 79% 0.7 mph W1.1 kmh W 1.6 mph2.6 kmh 29.93 in1013.5 mb 0.00 in0.0 mm 0.00 in0.0 mm 0.00 in0.0 mm
03:45 AM 47.3°F8.5°C 41.4°F5.2°C 80% 0.7 mph SW1.1 kmh SW 2.2 mph3.5 kmh 30.37 in1028.4 mb 0.00 in0.0 mm 0.00 in0.0 mm 0.00 in0.0 mm
04:00 AM 47.3°F8.5°C 41.4°F5.2°C 80% 3.8 mph SW6.1 kmh SW 6.0 mph9.7 kmh 30.37 in1028.4 mb 0.00 in0.0 mm 0.00 in0.0 mm 0.00 in0.0 mm
04:11 AM 47.3°F8.5°C 41.4°F5.2°C 80% 0.7 mph SW1.1 kmh SW 2.2 mph3.5 kmh 29.92 in1013.2 mb 0.00 in0.0 mm 0.00 in0.0 mm 0.00 in0.0 mm
04:15 AM 47.5°F8.6°C 41.6°F5.3°C 80% 3.8 mph SW6.1 kmh SW 6.9 mph11.1 kmh 30.37 in1028.4 mb 0.00 in0.0 mm 0.00 in0.0 mm 0.00 in0.0 mm
04:30 AM 47.7°F8.7°C 42.1°F5.6°C 81% 0.7 mph SSW1.1 kmh SSW 3.8 mph6.1 kmh 30.37 in1028.4 mb 0.00 in0.0 mm 0.00 in0.0 mm 0.00 in0.0 mm
04:41 AM 47.7°F8.7°C 42.1°F5.6°C 81% 2.2 mph SW3.5 kmh SW 3.1 mph5.0 kmh 29.92 in1013.2 mb 0.00 in0.0 mm 0.00 in0.0 mm 0.00 in0.0 mm
04:45 AM 47.7°F8.7°C 42.4°F5.8°C 82% 3.1 mph SSW5.0 kmh SSW 6.9 mph11.1 kmh 30.36 in1028.1 mb 0.00 in0.0 mm 0.00 in0.0 mm 0.00 in0.0 mm
05:00 AM 47.7°F8.7°C 42.4°F5.8°C 82% 3.1 mph SSW5.0 kmh SSW 5.4 mph8.7 kmh 30.37 in1028.4 mb 0.00 in0.0 mm 0.00 in0.0 mm 0.00 in0.0 mm
05:11 AM 47.7°F8.7°C 42.4°F5.8°C 82% 2.2 mph S3.5 kmh S 3.8 mph6.1 kmh 29.92 in1013.2 mb 0.00 in0.0 mm 0.00 in0.0 mm 0.00 in0.0 mm
05:15 AM 47.7°F8.7°C 42.8°F6.0°C 83% 1.6 mph SW2.6 kmh SW 6.9 mph11.1 kmh 30.36 in1028.1 mb 0.00 in0.0 mm 0.00 in0.0 mm 0.00 in0.0 mm
05:30 AM 47.7°F8.7°C 42.8°F6.0°C 83% 1.6 mph SSW2.6 kmh SSW 6.0 mph9.7 kmh 30.36 in1028.1 mb 0.00 in0.0 mm 0.00 in0.0 mm 0.00 in0.0 mm
05:41 AM 47.7°F8.7°C 42.8°F6.0°C 83% 3.1 mph SW5.0 kmh SW 4.5 mph7.2 kmh 29.92 in1013.2 mb 0.00 in0.0 mm 0.00 in0.0 mm 0.00 in0.0 mm
05:45 AM 47.8°F8.8°C 42.9°F6.1°C 83% 2.2 mph SSW3.5 kmh SSW 4.5 mph7.2 kmh 30.36 in1028.1 mb 0.00 in0.0 mm 0.00 in0.0 mm 0.00 in0.0 mm
06:00 AM 48.0°F8.9°C 43.4°F6.3°C 84% 4.5 mph SW7.2 kmh SW 6.9 mph11.1 kmh 30.36 in1028.1 mb 0.00 in0.0 mm 0.00 in0.0 mm 0.00 in0.0 mm
06:11 AM 48.0°F8.9°C 43.4°F6.3°C 84% 2.2 mph NW3.5 kmh NW 3.1 mph5.0 kmh 29.92 in1013.2 mb 0.00 in0.0 mm 0.00 in0.0 mm 0.00 in0.0 mm
06:15 AM 48.4°F9.1°C 43.8°F6.6°C 84% 3.1 mph SW5.0 kmh SW 7.6 mph12.2 kmh 30.37 in1028.4 mb 0.00 in0.0 mm 0.00 in0.0 mm 0.00 in0.0 mm
06:30 AM 48.6°F9.2°C 43.9°F6.6°C 84% 3.8 mph SW6.1 kmh SW 9.2 mph14.8 kmh 30.36 in1028.1 mb 0.00 in0.0 mm 0.00 in0.0 mm 0.00 in0.0 mm
06:41 AM 48.7°F9.3°C 44.1°F6.7°C 84% 2.2 mph SW3.5 kmh SW 4.5 mph7.2 kmh 29.91 in1012.9 mb 0.00 in0.0 mm 0.00 in0.0 mm 0.00 in0.0 mm
06:45 AM 49.1°F9.5°C 44.2°F6.8°C 83% 4.5 mph SE7.2 kmh SE 10.7 mph17.2 kmh 30.35 in1027.8 mb 0.00 in0.0 mm 0.00 in0.0 mm 0.00 in0.0 mm
07:00 AM 49.6°F9.8°C 44.7°F7.1°C 83% 5.4 mph S8.7 kmh S 8.3 mph13.4 kmh 30.36 in1028.1 mb 0.00 in0.0 mm 0.00 in0.0 mm 0.00 in0.0 mm
07:11 AM 49.6°F9.8°C 44.7°F7.1°C 83% 5.4 mph S8.7 kmh S 8.3 mph13.4 kmh 29.91 in1012.9 mb 0.00 in0.0 mm 0.00 in0.0 mm 0.00 in0.0 mm
07:15 AM 50.9°F10.5°C 45.6°F7.6°C 82% 3.8 mph S6.1 kmh S 11.4 mph18.3 kmh 30.35 in1027.8 mb 0.00 in0.0 mm 0.00 in0.0 mm 0.00 in0.0 mm
07:30 AM 52.2°F11.2°C 46.5°F8.1°C 81% 4.5 mph SSW7.2 kmh SSW 10.7 mph17.2 kmh 30.35 in1027.8 mb 0.00 in0.0 mm 0.00 in0.0 mm 0.00 in0.0 mm
07:41 AM 52.3°F11.3°C 46.4°F8.0°C 80% 4.5 mph S7.2 kmh S 6.0 mph9.7 kmh 29.91 in1012.9 mb 0.00 in0.0 mm 0.00 in0.0 mm 0.00 in0.0 mm
07:45 AM 53.2°F11.8°C 46.9°F8.3°C 79% 6.0 mph SW9.7 kmh SW 11.4 mph18.3 kmh 30.35 in1027.8 mb 0.00 in0.0 mm 0.00 in0.0 mm 0.00 in0.0 mm
08:00 AM 54.1°F12.3°C 46.4°F8.0°C 75% 6.9 mph WSW11.1 kmh WSW 13.0 mph20.9 kmh 30.35 in1027.8 mb 0.00 in0.0 mm 0.00 in0.0 mm 0.00 in0.0 mm
08:11 AM 54.1°F12.3°C 46.4°F8.0°C 75% 4.5 mph SW7.2 kmh SW 6.9 mph11.1 kmh 29.91 in1012.9 mb 0.00 in0.0 mm 0.00 in0.0 mm 0.00 in0.0 mm
08:15 AM 55.0°F12.8°C 45.8°F7.7°C 71% 9.2 mph SW14.8 kmh SW 10.7 mph17.2 kmh 30.35 in1027.8 mb 0.00 in0.0 mm 0.00 in0.0 mm 0.00 in0.0 mm
08:30 AM 55.9°F13.3°C 45.9°F7.7°C 69% 6.9 mph WSW11.1 kmh WSW 13.6 mph21.9 kmh 30.35 in1027.8 mb 0.00 in0.0 mm 0.00 in0.0 mm 0.00 in0.0 mm
08:41 AM 56.1°F13.4°C 46.1°F7.8°C 69% 9.2 mph SW14.8 kmh SW 14.5 mph23.3 kmh 29.89 in1012.2 mb 0.00 in0.0 mm 0.00 in0.0 mm 0.00 in0.0 mm
08:45 AM 56.7°F13.7°C 45.8°F7.7°C 67% 3.8 mph SSW6.1 kmh SSW 14.5 mph23.3 kmh 30.34 in1027.4 mb 0.00 in0.0 mm 0.00 in0.0 mm 0.00 in0.0 mm
09:00 AM 57.0°F13.9°C 45.0°F7.2°C 64% 8.3 mph SSW13.4 kmh SSW 13.6 mph21.9 kmh 30.33 in1027.1 mb 0.00 in0.0 mm 0.00 in0.0 mm 0.00 in0.0 mm
09:11 AM 57.0°F13.9°C 45.0°F7.2°C 64% 9.8 mph NW15.8 kmh NW 13.0 mph20.9 kmh 29.89 in1012.2 mb 0.00 in0.0 mm 0.00 in0.0 mm 0.00 in0.0 mm
09:15 AM 57.6°F14.2°C 45.5°F7.5°C 64% 5.4 mph SW8.7 kmh SW 15.2 mph24.5 kmh 30.33 in1027.1 mb 0.00 in0.0 mm 0.00 in0.0 mm 0.00 in0.0 mm
09:30 AM 58.1°F14.5°C 45.6°F7.6°C 63% 7.6 mph SW12.2 kmh SW 17.4 mph28.0 kmh 30.32 in1026.8 mb 0.00 in0.0 mm 0.00 in0.0 mm 0.00 in0.0 mm
09:41 AM 58.1°F14.5°C 45.6°F7.6°C 63% 9.2 mph S14.8 kmh S 13.6 mph21.9 kmh 29.89 in1012.2 mb 0.00 in0.0 mm 0.00 in0.0 mm 0.00 in0.0 mm
09:45 AM 58.3°F14.6°C 45.3°F7.4°C 62% 3.8 mph SW6.1 kmh SW 19.0 mph30.6 kmh 30.32 in1026.8 mb 0.00 in0.0 mm 0.00 in0.0 mm 0.00 in0.0 mm
10:00 AM 58.5°F14.7°C 45.1°F7.3°C 61% 16.8 mph WSW27.0 kmh WSW 22.1 mph35.6 kmh 30.32 in1026.8 mb 0.00 in0.0 mm 0.00 in0.0 mm 0.00 in0.0 mm
10:11 AM 58.5°F14.7°C 45.1°F7.3°C 61% 4.5 mph NW7.2 kmh NW 9.2 mph14.8 kmh 29.88 in1011.9 mb 0.00 in0.0 mm 0.00 in0.0 mm 0.00 in0.0 mm
10:15 AM 59.0°F15.0°C 45.6°F7.6°C 61% 9.8 mph SW15.8 kmh SW 16.8 mph27.0 kmh 30.32 in1026.8 mb 0.00 in0.0 mm 0.00 in0.0 mm 0.00 in0.0 mm
10:30 AM 59.4°F15.2°C 44.6°F7.0°C 58% 15.2 mph SW24.5 kmh SW 20.6 mph33.2 kmh 30.31 in1026.4 mb 0.00 in0.0 mm 0.00 in0.0 mm 0.00 in0.0 mm
10:41 AM 59.2°F15.1°C 44.4°F6.9°C 58% 15.2 mph SW24.5 kmh SW 23.5 mph37.8 kmh 29.86 in1011.2 mb 0.00 in0.0 mm 0.00 in0.0 mm 0.00 in0.0 mm
10:45 AM 59.0°F15.0°C 44.7°F7.1°C 59% 6.0 mph SW9.7 kmh SW 18.3 mph29.5 kmh 30.30 in1026.1 mb 0.00 in0.0 mm 0.00 in0.0 mm 0.00 in0.0 mm
11:00 AM 60.6°F15.9°C 44.8°F7.1°C 56% 12.1 mph S19.5 kmh S 19.0 mph30.6 kmh 30.30 in1026.1 mb 0.00 in0.0 mm 0.00 in0.0 mm 0.00 in0.0 mm
11:11 AM 60.6°F15.9°C 44.4°F6.9°C 55% 15.2 mph NE24.5 kmh NE 19.7 mph31.7 kmh 29.85 in1010.8 mb 0.00 in0.0 mm 0.00 in0.0 mm 0.00 in0.0 mm
11:15 AM 59.4°F15.2°C 43.7°F6.5°C 56% 9.2 mph SW14.8 kmh SW 22.8 mph36.7 kmh 30.30 in1026.1 mb 0.00 in0.0 mm 0.00 in0.0 mm 0.00 in0.0 mm
11:30 AM 59.7°F15.4°C 43.0°F6.1°C 54% 7.6 mph SSW12.2 kmh SSW 21.3 mph34.3 kmh 30.29 in1025.7 mb 0.00 in0.0 mm 0.00 in0.0 mm 0.00 in0.0 mm
11:41 AM 59.9°F15.5°C 43.2°F6.2°C 54% 15.9 mph S25.6 kmh S 21.3 mph34.3 kmh 29.84 in1010.5 mb 0.00 in0.0 mm 0.00 in0.0 mm 0.00 in0.0 mm
11:45 AM 60.6°F15.9°C 43.4°F6.3°C 53% 15.9 mph WSW25.6 kmh WSW 19.7 mph31.7 kmh 30.29 in1025.7 mb 0.00 in0.0 mm 0.00 in0.0 mm 0.00 in0.0 mm
12:00 PM 59.9°F15.5°C 42.7°F5.9°C 53% 5.4 mph SW8.7 kmh SW 18.3 mph29.5 kmh 30.27 in1025.1 mb 0.00 in0.0 mm 0.00 in0.0 mm 0.00 in0.0 mm
12:11 PM 59.9°F15.5°C 42.7°F5.9°C 53% 9.8 mph SW15.8 kmh SW 15.2 mph24.5 kmh 29.83 in1010.2 mb 0.00 in0.0 mm 0.00 in0.0 mm 0.00 in0.0 mm
12:15 PM 59.7°F15.4°C 42.6°F5.9°C 53% 7.6 mph SSW12.2 kmh SSW 19.7 mph31.7 kmh 30.27 in1025.1 mb 0.00 in0.0 mm 0.00 in0.0 mm 0.00 in0.0 mm
12:30 PM 60.1°F15.6°C 42.9°F6.1°C 53% 13.0 mph SW20.9 kmh SW 17.4 mph28.0 kmh 30.27 in1025.1 mb 0.00 in0.0 mm 0.00 in0.0 mm 0.00 in0.0 mm
12:41 PM 60.1°F15.6°C 42.9°F6.1°C 53% 13.0 mph SW20.9 kmh SW 15.9 mph25.6 kmh 29.82 in1009.8 mb 0.00 in0.0 mm 0.00 in0.0 mm 0.00 in0.0 mm
12:45 PM 59.9°F15.5°C 42.7°F5.9°C 53% 6.0 mph SSW9.7 kmh SSW 19.7 mph31.7 kmh 30.25 in1024.4 mb 0.00 in0.0 mm 0.00 in0.0 mm 0.00 in0.0 mm
01:00 PM 59.4°F15.2°C 42.2°F5.7°C 53% 14.5 mph S23.3 kmh S 18.3 mph29.5 kmh 30.25 in1024.4 mb 0.00 in0.0 mm 0.00 in0.0 mm 0.00 in0.0 mm
01:11 PM 59.4°F15.2°C 42.2°F5.7°C 53% 14.5 mph S23.3 kmh S 18.3 mph29.5 kmh 29.81 in1009.5 mb 0.00 in0.0 mm 0.00 in0.0 mm 0.00 in0.0 mm
01:15 PM 59.0°F15.0°C 44.2°F6.8°C 58% 11.4 mph SSW18.3 kmh SSW 19.0 mph30.6 kmh 30.25 in1024.4 mb 0.00 in0.0 mm 0.00 in0.0 mm 0.00 in0.0 mm
01:30 PM 59.4°F15.2°C 44.1°F6.7°C 57% 10.7 mph S17.2 kmh S 17.4 mph28.0 kmh 30.24 in1024.0 mb 0.00 in0.0 mm 0.00 in0.0 mm 0.00 in0.0 mm
01:41 PM 59.4°F15.2°C 44.1°F6.7°C 57% 11.4 mph S18.3 kmh S 16.8 mph27.0 kmh 29.79 in1008.8 mb 0.00 in0.0 mm 0.00 in0.0 mm 0.00 in0.0 mm
01:45 PM 59.0°F15.0°C 43.3°F6.3°C 56% 5.4 mph S8.7 kmh S 19.0 mph30.6 kmh 30.23 in1023.7 mb 0.00 in0.0 mm 0.00 in0.0 mm 0.00 in0.0 mm
02:00 PM 59.4°F15.2°C 42.7°F5.9°C 54% 11.4 mph SW18.3 kmh SW 19.0 mph30.6 kmh 30.22 in1023.4 mb 0.00 in0.0 mm 0.00 in0.0 mm 0.00 in0.0 mm
02:11 PM 59.4°F15.2°C 42.2°F5.7°C 53% 8.3 mph W13.4 kmh W 10.7 mph17.2 kmh 29.79 in1008.8 mb 0.00 in0.0 mm 0.00 in0.0 mm 0.00 in0.0 mm
02:15 PM 59.4°F15.2°C 41.7°F5.4°C 52% 15.9 mph SSW25.6 kmh SSW 25.9 mph41.7 kmh 30.22 in1023.4 mb 0.00 in0.0 mm 0.00 in0.0 mm 0.00 in0.0 mm
02:30 PM 59.4°F15.2°C 42.2°F5.7°C 53% 13.6 mph WSW21.9 kmh WSW 26.6 mph42.8 kmh 30.21 in1023.0 mb 0.00 in0.0 mm 0.00 in0.0 mm 0.00 in0.0 mm
02:41 PM 59.2°F15.1°C 42.0°F5.6°C 53% 6.0 mph SW9.7 kmh SW 9.8 mph15.8 kmh 29.77 in1008.1 mb 0.00 in0.0 mm 0.00 in0.0 mm 0.00 in0.0 mm
02:45 PM 59.0°F15.0°C 41.4°F5.2°C 52% 5.4 mph SSW8.7 kmh SSW 22.8 mph36.7 kmh 30.20 in1022.7 mb 0.00 in0.0 mm 0.00 in0.0 mm 0.00 in0.0 mm
03:00 PM 59.5°F15.3°C 42.4°F5.8°C 53% 8.3 mph S13.4 kmh S 20.6 mph33.2 kmh 30.20 in1022.7 mb 0.00 in0.0 mm 0.00 in0.0 mm 0.00 in0.0 mm
03:11 PM 59.7°F15.4°C 42.6°F5.9°C 53% 9.2 mph W14.8 kmh W 15.2 mph24.5 kmh 29.76 in1007.8 mb 0.00 in0.0 mm 0.00 in0.0 mm 0.00 in0.0 mm
03:15 PM 59.5°F15.3°C 43.3°F6.3°C 55% 9.2 mph SW14.8 kmh SW 25.9 mph41.7 kmh 30.19 in1022.4 mb 0.00 in0.0 mm 0.00 in0.0 mm 0.00 in0.0 mm
03:30 PM 59.0°F15.0°C 43.3°F6.3°C 56% 7.6 mph SSW12.2 kmh SSW 21.3 mph34.3 kmh 30.19 in1022.4 mb 0.00 in0.0 mm 0.00 in0.0 mm 0.00 in0.0 mm
03:41 PM 59.0°F15.0°C 43.8°F6.6°C 57% 9.8 mph SE15.8 kmh SE 15.9 mph25.6 kmh 29.74 in1007.1 mb 0.00 in0.0 mm 0.00 in0.0 mm 0.00 in0.0 mm
03:45 PM 59.2°F15.1°C 43.0°F6.1°C 55% 10.7 mph S17.2 kmh S 22.1 mph35.6 kmh 30.18 in1022.0 mb 0.00 in0.0 mm 0.00 in0.0 mm 0.00 in0.0 mm
04:00 PM 58.3°F14.6°C 44.4°F6.9°C 60% 9.2 mph WSW14.8 kmh WSW 18.3 mph29.5 kmh 30.18 in1022.0 mb 0.00 in0.0 mm 0.00 in0.0 mm 0.00 in0.0 mm
04:11 PM 58.1°F14.5°C 44.3°F6.8°C 60% 15.2 mph SW24.5 kmh SW 20.6 mph33.2 kmh 29.74 in1007.1 mb 0.00 in0.0 mm 0.00 in0.0 mm 0.00 in0.0 mm
04:15 PM 55.8°F13.2°C 43.3°F6.3°C 63% 12.1 mph NW19.5 kmh NW 38.7 mph62.3 kmh 30.21 in1023.0 mb 0.01 in0.3 mm 0.15 in3.8 mm 0.01 in0.3 mm
04:30 PM 52.0°F11.1°C 44.3°F6.8°C 75% 9.2 mph NW14.8 kmh NW 19.7 mph31.7 kmh 30.21 in1023.0 mb 0.05 in1.3 mm 0.16 in4.1 mm 0.05 in1.3 mm
04:41 PM 51.8°F11.0°C 44.1°F6.7°C 75% 6.9 mph NW11.1 kmh NW 9.2 mph14.8 kmh 29.76 in1007.8 mb 0.05 in1.3 mm 0.00 in0.0 mm 0.05 in1.3 mm
04:45 PM 51.1°F10.6°C 44.8°F7.1°C 79% 6.0 mph NW9.7 kmh NW 13.6 mph21.9 kmh 30.20 in1022.7 mb 0.05 in1.3 mm 0.00 in0.0 mm 0.05 in1.3 mm
05:00 PM 50.9°F10.5°C 45.3°F7.4°C 81% 5.4 mph W8.7 kmh W 10.7 mph17.2 kmh 30.19 in1022.4 mb 0.05 in1.3 mm 0.00 in0.0 mm 0.05 in1.3 mm
05:11 PM 50.7°F10.4°C 45.1°F7.3°C 81% 3.1 mph SW5.0 kmh SW 4.5 mph7.2 kmh 29.75 in1007.5 mb 0.05 in1.3 mm 0.00 in0.0 mm 0.05 in1.3 mm
05:15 PM 50.7°F10.4°C 45.7°F7.6°C 83% 4.5 mph SW7.2 kmh SW 10.7 mph17.2 kmh 30.19 in1022.4 mb 0.04 in1.0 mm 0.00 in0.0 mm 0.05 in1.3 mm
05:30 PM 50.9°F10.5°C 46.2°F7.9°C 84% 1.6 mph SW2.6 kmh SW 12.1 mph19.5 kmh 30.18 in1022.0 mb 0.00 in0.0 mm 0.00 in0.0 mm 0.05 in1.3 mm
05:41 PM 50.9°F10.5°C 46.2°F7.9°C 84% 4.5 mph SW7.2 kmh SW 5.4 mph8.7 kmh 29.73 in1006.8 mb 0.00 in0.0 mm 0.00 in0.0 mm 0.05 in1.3 mm
05:45 PM 50.9°F10.5°C 46.2°F7.9°C 84% 3.8 mph WSW6.1 kmh WSW 6.9 mph11.1 kmh 30.18 in1022.0 mb 0.00 in0.0 mm 0.00 in0.0 mm 0.05 in1.3 mm
06:00 PM 50.9°F10.5°C 46.6°F8.1°C 85% 8.3 mph WNW13.4 kmh WNW 17.4 mph28.0 kmh 30.20 in1022.7 mb 0.01 in0.3 mm 0.01 in0.3 mm 0.06 in1.5 mm
06:11 PM 50.9°F10.5°C 46.6°F8.1°C 85% 10.7 mph S17.2 kmh S 14.5 mph23.3 kmh 29.75 in1007.5 mb 0.02 in0.5 mm 0.05 in1.3 mm 0.07 in1.8 mm
06:15 PM 49.6°F9.8°C 45.0°F7.2°C 84% 8.3 mph WNW13.4 kmh WNW 19.0 mph30.6 kmh 30.20 in1022.7 mb 0.04 in1.0 mm 0.30 in7.6 mm 0.08 in2.0 mm
06:30 PM 48.4°F9.1°C 43.5°F6.4°C 83% 7.6 mph WNW12.2 kmh WNW 13.6 mph21.9 kmh 30.20 in1022.7 mb 0.06 in1.5 mm 0.08 in2.0 mm 0.11 in2.8 mm
06:41 PM 48.4°F9.1°C 43.5°F6.4°C 83% 8.3 mph NW13.4 kmh NW 9.8 mph15.8 kmh 29.75 in1007.5 mb 0.06 in1.5 mm 0.00 in0.0 mm 0.11 in2.8 mm
06:45 PM 48.0°F8.9°C 43.4°F6.3°C 84% 4.5 mph WNW7.2 kmh WNW 9.8 mph15.8 kmh 30.20 in1022.7 mb 0.07 in1.8 mm 0.15 in3.8 mm 0.12 in3.0 mm
07:00 PM 47.8°F8.8°C 43.5°F6.4°C 85% 6.9 mph W11.1 kmh W 9.8 mph15.8 kmh 30.20 in1022.7 mb 0.06 in1.5 mm 0.00 in0.0 mm 0.12 in3.0 mm
07:11 PM 47.8°F8.8°C 43.5°F6.4°C 85% 6.9 mph W11.1 kmh W 7.6 mph12.2 kmh 29.75 in1007.5 mb 0.05 in1.3 mm 0.00 in0.0 mm 0.12 in3.0 mm
07:15 PM 47.8°F8.8°C 43.9°F6.6°C 86% 2.2 mph S3.5 kmh S 7.6 mph12.2 kmh 30.18 in1022.0 mb 0.05 in1.3 mm 0.00 in0.0 mm 0.13 in3.3 mm
07:30 PM 47.7°F8.7°C 44.0°F6.7°C 87% 4.5 mph SW7.2 kmh SW 12.1 mph19.5 kmh 30.17 in1021.7 mb 0.02 in0.5 mm 0.00 in0.0 mm 0.13 in3.3 mm
07:41 PM 47.7°F8.7°C 44.0°F6.7°C 87% 5.4 mph SW8.7 kmh SW 9.8 mph15.8 kmh 29.73 in1006.8 mb 0.02 in0.5 mm 0.00 in0.0 mm 0.13 in3.3 mm
07:45 PM 47.7°F8.7°C 44.3°F6.8°C 88% 7.6 mph SW12.2 kmh SW 11.4 mph18.3 kmh 30.18 in1022.0 mb 0.01 in0.3 mm 0.00 in0.0 mm 0.13 in3.3 mm
08:00 PM 47.5°F8.6°C 44.1°F6.7°C 88% 3.8 mph S6.1 kmh S 9.8 mph15.8 kmh 30.18 in1022.0 mb 0.01 in0.3 mm 0.00 in0.0 mm 0.13 in3.3 mm
08:11 PM 47.5°F8.6°C 44.1°F6.7°C 88% 3.8 mph SE6.1 kmh SE 6.0 mph9.7 kmh 29.74 in1007.1 mb 0.01 in0.3 mm 0.00 in0.0 mm 0.13 in3.3 mm
08:15 PM 47.5°F8.6°C 44.1°F6.7°C 88% 7.6 mph SW12.2 kmh SW 13.0 mph20.9 kmh 30.18 in1022.0 mb 0.00 in0.0 mm 0.00 in0.0 mm 0.13 in3.3 mm
08:30 PM 47.5°F8.6°C 44.1°F6.7°C 88% 3.8 mph S6.1 kmh S 13.0 mph20.9 kmh 30.18 in1022.0 mb 0.00 in0.0 mm 0.00 in0.0 mm 0.13 in3.3 mm
08:41 PM 47.5°F8.6°C 44.1°F6.7°C 88% 4.5 mph S7.2 kmh S 6.9 mph11.1 kmh 29.74 in1007.1 mb 0.00 in0.0 mm 0.00 in0.0 mm 0.13 in3.3 mm
08:45 PM 47.3°F8.5°C 43.9°F6.6°C 88% 3.8 mph SW6.1 kmh SW 11.4 mph18.3 kmh 30.19 in1022.4 mb 0.00 in0.0 mm 0.00 in0.0 mm 0.13 in3.3 mm
09:00 PM 47.1°F8.4°C 43.7°F6.5°C 88% 7.6 mph SSW12.2 kmh SSW 18.3 mph29.5 kmh 30.18 in1022.0 mb 0.00 in0.0 mm 0.00 in0.0 mm 0.13 in3.3 mm
09:11 PM 47.1°F8.4°C 43.7°F6.5°C 88% 6.0 mph S9.7 kmh S 9.8 mph15.8 kmh 29.75 in1007.5 mb 0.00 in0.0 mm 0.00 in0.0 mm 0.13 in3.3 mm
09:15 PM 47.3°F8.5°C 43.9°F6.6°C 88% 5.4 mph SW8.7 kmh SW 13.6 mph21.9 kmh 30.19 in1022.4 mb 0.00 in0.0 mm 0.00 in0.0 mm 0.13 in3.3 mm
09:30 PM 47.5°F8.6°C 44.1°F6.7°C 88% 3.8 mph WSW6.1 kmh WSW 15.9 mph25.6 kmh 30.19 in1022.4 mb 0.00 in0.0 mm 0.00 in0.0 mm 0.13 in3.3 mm
09:41 PM 47.5°F8.6°C 44.1°F6.7°C 88% 7.6 mph SW12.2 kmh SW 10.7 mph17.2 kmh 29.75 in1007.5 mb 0.00 in0.0 mm 0.00 in0.0 mm 0.13 in3.3 mm
09:45 PM 47.3°F8.5°C 43.6°F6.4°C 87% 7.6 mph SW12.2 kmh SW 16.8 mph27.0 kmh 30.19 in1022.4 mb 0.00 in0.0 mm 0.00 in0.0 mm 0.13 in3.3 mm
10:00 PM 47.1°F8.4°C 43.1°F6.2°C 86% 7.6 mph W12.2 kmh W 14.5 mph23.3 kmh 30.19 in1022.4 mb 0.00 in0.0 mm 0.00 in0.0 mm 0.13 in3.3 mm
10:11 PM 46.9°F8.3°C 43.0°F6.1°C 86% 4.5 mph N7.2 kmh N 6.9 mph11.1 kmh 29.73 in1006.8 mb 0.00 in0.0 mm 0.00 in0.0 mm 0.13 in3.3 mm
10:15 PM 46.9°F8.3°C 42.7°F5.9°C 85% 7.6 mph W12.2 kmh W 15.9 mph25.6 kmh 30.19 in1022.4 mb 0.00 in0.0 mm 0.00 in0.0 mm 0.13 in3.3 mm
10:30 PM 46.9°F8.3°C 42.4°F5.8°C 84% 4.5 mph WNW7.2 kmh WNW 20.6 mph33.2 kmh 30.19 in1022.4 mb 0.00 in0.0 mm 0.00 in0.0 mm 0.13 in3.3 mm
10:41 PM 46.9°F8.3°C 42.4°F5.8°C 84% 5.4 mph W8.7 kmh W 7.6 mph12.2 kmh 29.75 in1007.5 mb 0.00 in0.0 mm 0.00 in0.0 mm 0.13 in3.3 mm
10:45 PM 46.9°F8.3°C 41.7°F5.4°C 82% 9.2 mph WSW14.8 kmh WSW 15.9 mph25.6 kmh 30.19 in1022.4 mb 0.00 in0.0 mm 0.00 in0.0 mm 0.13 in3.3 mm
11:00 PM 47.1°F8.4°C 41.9°F5.5°C 82% 12.1 mph WSW19.5 kmh WSW 15.9 mph25.6 kmh 30.20 in1022.7 mb 0.00 in0.0 mm 0.00 in0.0 mm 0.12 in3.0 mm
11:11 PM 47.1°F8.4°C 41.9°F5.5°C 82% 9.2 mph W14.8 kmh W 14.5 mph23.3 kmh 29.75 in1007.5 mb 0.00 in0.0 mm 0.00 in0.0 mm 0.12 in3.0 mm
11:15 PM 46.9°F8.3°C 41.4°F5.2°C 81% 6.0 mph W9.7 kmh W 19.0 mph30.6 kmh 30.19 in1022.4 mb 0.00 in0.0 mm 0.00 in0.0 mm 0.12 in3.0 mm
11:30 PM 46.9°F8.3°C 41.1°F5.1°C 80% 6.0 mph WSW9.7 kmh WSW 20.6 mph33.2 kmh 30.19 in1022.4 mb 0.00 in0.0 mm 0.00 in0.0 mm 0.12 in3.0 mm
11:41 PM 46.9°F8.3°C 41.1°F5.1°C 80% 6.0 mph NW9.7 kmh NW 9.2 mph14.8 kmh 29.75 in1007.5 mb 0.00 in0.0 mm 0.00 in0.0 mm 0.12 in3.0 mm
11:45 PM 46.8°F8.2°C 40.6°F4.8°C 79% 6.9 mph WSW11.1 kmh WSW 14.5 mph23.3 kmh 30.19 in1022.4 mb 0.00 in0.0 mm 0.00 in0.0 mm 0.12 in3.0 mm